Flight Track Log - Related Links

Times and Time Zones

All times are in EDT time to prevent confusion due to time zone crossing. See the JIA2497 flight status page for this flight to view local times or setup timezone preferences in your user account.

Time Position Orientation Groundspeed Altitude Reporting Facility
EDT Latitude Longitude Course Direction KTS MPH feet Rate Location/Type
Wed 07:35:00 PM 35.6772 -78.0092 276° West  Level FlightAware Approximate
Wed 07:36:18 PM 35.6406 -77.3350 276° West 371 427 20,000  Level Washington Center
Wed 07:37:18 PM 35.7047 -77.3775 332° Northwest 255 293 20,000  Level Washington Center
Wed 07:38:19 PM 35.7136 -77.4619 277° West 255 293 20,000 -4,364 Level Washington Center
Wed 07:39:19 PM 35.7164 -77.5492 272° West 260 299 11,200 -3,378 Descending Washington Center
Wed 07:40:18 PM 35.7233 -77.6439 275° West 271 312 13,300 2,000 Climbing Washington Center
Wed 07:41:19 PM 35.7278 -77.7439 273° West 285 328 15,200 1,884 Climbing Washington Center
Wed 07:42:19 PM 35.7342 -77.8489 274° West 298 343 17,100 1,424 Climbing Washington Center
Wed 07:43:17 PM 35.7406 -77.9567 274° West 309 356 18,000 1,322 Climbing Washington Center
Wed 07:44:17 PM 35.7464 -78.0719 274° West 322 371 19,700 992 Climbing Washington Center
Wed 07:45:18 PM 35.7522 -78.1925 273° West 344 396 20,000 149 Climbing Washington Center
Wed 07:46:18 PM 35.7578 -78.3156 273° West 355 409 20,000  Level Washington Center
Wed 07:47:19 PM 35.7656 -78.4386 274° West 361 415 20,000  Level Washington Center
Wed 07:48:17 PM 35.7686 -78.5617 272° West 361 415 20,000  Level Washington Center
Wed 07:49:17 PM 35.7761 -78.6847 274° West 367 422 20,000  Level Washington Center
Wed 07:50:18 PM 35.7808 -78.8231 272° West 367 422 20,000  Level Washington Center
Wed 07:51:18 PM 35.7858 -78.9411 273° West 367 422 20,000 -298 Level Washington Center
Wed 07:52:19 PM 35.7908 -79.0592 273° West 357 411 19,400 -843 Descending Washington Center
Wed 07:53:19 PM 35.7958 -79.1719 273° West 345 397 18,300 -699 Descending Washington Center
Wed 07:55:45 PM 35.8053 -79.4375 273° West 344 396 17,000 -379 Descending Atlanta Center
Wed 07:56:45 PM 35.8092 -79.5475 273° West 339 390 17,000  Level Atlanta Center
Wed 07:57:45 PM 35.8108 -79.6497 271° West 326 375 17,000  Level Atlanta Center
Wed 07:58:45 PM 35.8106 -79.7600 270° West 312 359 17,000 -250 Level Atlanta Center
Wed 07:59:45 PM 35.8106 -79.8778 270° West 312 359 16,500 -650 Descending Atlanta Center
Wed 08:00:45 PM 35.8119 -79.9878 271° West 319 367 15,700 -830 Descending Atlanta Center
Wed 08:01:19 PM 35.8122 -80.0569 270° West 335 386 15,200 -700 Descending Atlanta Center
Wed 08:01:45 PM 35.8117 -80.1056 269° West 332 382 15,000 -698 Descending Atlanta Center
Wed 08:02:45 PM 35.8111 -80.2183 270° West 332 382 14,200 -850 Descending Atlanta Center
Wed 08:03:45 PM 35.7953 -80.3164 259° West 332 382 13,300 -600 Descending Atlanta Center
Wed 08:04:45 PM 35.7303 -80.3756 216° Southwest 279 321 13,000 -900 Descending Atlanta Center
Wed 08:05:45 PM 35.6736 -80.4367 221° Southwest 285 328 11,500 -1,750 Descending Atlanta Center
Wed 08:06:45 PM 35.6150 -80.4956 219° Southwest 279 321 9,500 -1,750 Descending Atlanta Center
Wed 08:07:45 PM 35.5603 -80.5517 220° Southwest 267 307 8,000 -1,500 Descending Atlanta Center
Wed 08:08:45 PM 35.5056 -80.6075 220° Southwest 262 302 6,500 -1,050 Descending Atlanta Center
Wed 08:09:45 PM 35.4467 -80.6686 220° Southwest 262 302 5,900 -800 Descending Atlanta Center
Wed 08:10:45 PM 35.3917 -80.7217 218° Southwest 257 296 4,900 -1,000 Descending Atlanta Center

Login

Don't have an account? Register now (free) for customized features, flight alerts, and more!